sensor_id;sensor_type;location;lat;lon;timestamp;pressure;altitude;pressure_sealevel;temperature;humidity
45872;BME280;32333;55.844;-3.210;2022-09-21T00:01:46;100348.91;;;11.76;100.00
45872;BME280;32333;55.844;-3.210;2022-09-21T00:04:14;100349.34;;;11.35;100.00
45872;BME280;32333;55.844;-3.210;2022-09-21T00:06:42;100349.36;;;12.04;100.00
45872;BME280;32333;55.844;-3.210;2022-09-21T00:09:09;100347.88;;;11.68;100.00
45872;BME280;32333;55.844;-3.210;2022-09-21T00:11:37;100348.10;;;12.06;100.00
45872;BME280;32333;55.844;-3.210;2022-09-21T00:14:36;100351.03;;;11.81;100.00
45872;BME280;32333;55.844;-3.210;2022-09-21T00:17:03;100350.94;;;11.79;100.00
45872;BME280;32333;55.844;-3.210;2022-09-21T00:19:34;100346.72;;;9.50;100.00
45872;BME280;32333;55.844;-3.210;2022-09-21T00:22:02;100340.67;;;11.85;100.00
45872;BME280;32333;55.844;-3.210;2022-09-21T00:24:29;100340.63;;;12.75;100.00
45872;BME280;32333;55.844;-3.210;2022-09-21T00:26:56;100348.45;;;11.92;100.00
45872;BME280;32333;55.844;-3.210;2022-09-21T00:29:23;100348.58;;;11.00;100.00
45872;BME280;32333;55.844;-3.210;2022-09-21T00:31:50;100344.29;;;11.70;100.00
45872;BME280;32333;55.844;-3.210;2022-09-21T00:34:17;100341.54;;;11.34;100.00
45872;BME280;32333;55.844;-3.210;2022-09-21T00:36:44;100341.84;;;11.45;100.00
45872;BME280;32333;55.844;-3.210;2022-09-21T00:39:12;100344.16;;;11.53;100.00
45872;BME280;32333;55.844;-3.210;2022-09-21T00:41:39;100340.51;;;11.08;100.00
45872;BME280;32333;55.844;-3.210;2022-09-21T00:44:34;100336.61;;;11.14;100.00
45872;BME280;32333;55.844;-3.210;2022-09-21T00:47:06;100334.60;;;11.35;100.00
45872;BME280;32333;55.844;-3.210;2022-09-21T00:49:36;100335.25;;;10.64;100.00
45872;BME280;32333;55.844;-3.210;2022-09-21T00:52:06;100338.68;;;11.19;100.00
45872;BME280;32333;55.844;-3.210;2022-09-21T00:54:36;100340.16;;;10.66;100.00
45872;BME280;32333;55.844;-3.210;2022-09-21T00:57:05;100342.10;;;11.27;100.00
45872;BME280;32333;55.844;-3.210;2022-09-21T00:59:35;100338.78;;;10.89;100.00
45872;BME280;32333;55.844;-3.210;2022-09-21T01:02:04;100335.10;;;11.17;100.00
45872;BME280;32333;55.844;-3.210;2022-09-21T01:04:32;100337.75;;;11.93;100.00
45872;BME280;32333;55.844;-3.210;2022-09-21T01:07:05;100340.60;;;11.56;100.00
45872;BME280;32333;55.844;-3.210;2022-09-21T01:09:35;100340.07;;;11.16;100.00
45872;BME280;32333;55.844;-3.210;2022-09-21T01:14:47;100334.02;;;10.21;100.00
45872;BME280;32333;55.844;-3.210;2022-09-21T01:17:23;100341.40;;;11.85;100.00
45872;BME280;32333;55.844;-3.210;2022-09-21T01:20:24;100337.08;;;10.63;100.00
45872;BME280;32333;55.844;-3.210;2022-09-21T01:23:06;100341.87;;;10.84;100.00
45872;BME280;32333;55.844;-3.210;2022-09-21T01:25:49;100339.49;;;10.88;100.00
45872;BME280;32333;55.844;-3.210;2022-09-21T01:28:26;100340.88;;;11.51;100.00
45872;BME280;32333;55.844;-3.210;2022-09-21T01:31:04;100341.31;;;12.40;100.00
45872;BME280;32333;55.844;-3.210;2022-09-21T01:33:38;100340.95;;;12.33;100.00
45872;BME280;32333;55.844;-3.210;2022-09-21T01:36:09;100341.44;;;11.66;100.00
45872;BME280;32333;55.844;-3.210;2022-09-21T01:38:43;100341.70;;;11.17;100.00
45872;BME280;32333;55.844;-3.210;2022-09-21T01:41:15;100339.83;;;11.64;100.00
45872;BME280;32333;55.844;-3.210;2022-09-21T01:44:37;100334.99;;;12.34;100.00
45872;BME280;32333;55.844;-3.210;2022-09-21T01:47:09;100334.32;;;11.69;100.00
45872;BME280;32333;55.844;-3.210;2022-09-21T01:49:38;100328.65;;;11.84;100.00
45872;BME280;32333;55.844;-3.210;2022-09-21T01:52:13;100325.21;;;12.33;100.00
45872;BME280;32333;55.844;-3.210;2022-09-21T01:54:46;100328.68;;;12.43;100.00
45872;BME280;32333;55.844;-3.210;2022-09-21T01:57:20;100334.43;;;11.78;100.00
45872;BME280;32333;55.844;-3.210;2022-09-21T01:59:51;100334.07;;;11.67;100.00
45872;BME280;32333;55.844;-3.210;2022-09-21T02:02:24;100330.17;;;11.07;100.00
45872;BME280;32333;55.844;-3.210;2022-09-21T02:04:53;100326.79;;;10.56;100.00
45872;BME280;32333;55.844;-3.210;2022-09-21T02:07:21;100328.85;;;11.25;100.00
45872;BME280;32333;55.844;-3.210;2022-09-21T02:09:49;100331.11;;;11.10;100.00
45872;BME280;32333;55.844;-3.210;2022-09-21T02:14:36;100332.65;;;11.80;100.00
45872;BME280;32333;55.844;-3.210;2022-09-21T02:17:12;100335.45;;;11.60;100.00
45872;BME280;32333;55.844;-3.210;2022-09-21T02:19:45;100332.77;;;11.68;100.00
45872;BME280;32333;55.844;-3.210;2022-09-21T02:22:21;100335.90;;;10.91;100.00
45872;BME280;32333;55.844;-3.210;2022-09-21T02:24:59;100336.22;;;11.03;100.00
45872;BME280;32333;55.844;-3.210;2022-09-21T02:27:35;100333.24;;;10.85;100.00
45872;BME280;32333;55.844;-3.210;2022-09-21T02:30:07;100329.32;;;10.66;100.00
45872;BME280;32333;55.844;-3.210;2022-09-21T02:32:44;100330.80;;;10.74;100.00
45872;BME280;32333;55.844;-3.210;2022-09-21T02:35:21;100334.36;;;10.57;100.00
45872;BME280;32333;55.844;-3.210;2022-09-21T02:37:53;100337.74;;;10.00;100.00
45872;BME280;32333;55.844;-3.210;2022-09-21T02:40:28;100330.33;;;10.26;100.00
45872;BME280;32333;55.844;-3.210;2022-09-21T02:44:39;100323.71;;;9.93;100.00
45872;BME280;32333;55.844;-3.210;2022-09-21T02:47:12;100319.72;;;10.75;100.00
45872;BME280;32333;55.844;-3.210;2022-09-21T02:49:45;100317.32;;;11.66;100.00
45872;BME280;32333;55.844;-3.210;2022-09-21T02:52:16;100318.32;;;10.56;100.00
45872;BME280;32333;55.844;-3.210;2022-09-21T02:54:47;100320.19;;;10.53;100.00
45872;BME280;32333;55.844;-3.210;2022-09-21T02:57:18;100320.09;;;10.01;100.00
45872;BME280;32333;55.844;-3.210;2022-09-21T02:59:48;100320.08;;;10.85;100.00
45872;BME280;32333;55.844;-3.210;2022-09-21T03:02:18;100319.64;;;11.28;100.00
45872;BME280;32333;55.844;-3.210;2022-09-21T03:04:46;100313.23;;;10.57;100.00
45872;BME280;32333;55.844;-3.210;2022-09-21T03:07:14;100309.95;;;11.33;100.00
45872;BME280;32333;55.844;-3.210;2022-09-21T03:09:42;100306.76;;;11.46;100.00
45872;BME280;32333;55.844;-3.210;2022-09-21T03:14:36;100304.34;;;11.37;100.00
45872;BME280;32333;55.844;-3.210;2022-09-21T03:17:03;100300.91;;;10.73;100.00
45872;BME280;32333;55.844;-3.210;2022-09-21T03:19:30;100295.98;;;10.36;100.00
45872;BME280;32333;55.844;-3.210;2022-09-21T03:21:59;100292.19;;;10.76;100.00
45872;BME280;32333;55.844;-3.210;2022-09-21T03:24:26;100290.47;;;10.84;100.00
45872;BME280;32333;55.844;-3.210;2022-09-21T03:26:53;100288.83;;;10.84;100.00
45872;BME280;32333;55.844;-3.210;2022-09-21T03:29:21;100288.17;;;10.83;100.00
45872;BME280;32333;55.844;-3.210;2022-09-21T03:31:48;100285.06;;;11.03;100.00
45872;BME280;32333;55.844;-3.210;2022-09-21T03:34:16;100276.74;;;10.75;100.00
45872;BME280;32333;55.844;-3.210;2022-09-21T03:36:44;100271.85;;;10.81;100.00
45872;BME280;32333;55.844;-3.210;2022-09-21T03:39:12;100267.70;;;11.08;100.00
45872;BME280;32333;55.844;-3.210;2022-09-21T03:41:39;100267.29;;;10.87;100.00
45872;BME280;32333;55.844;-3.210;2022-09-21T03:44:35;100266.98;;;10.24;100.00
45872;BME280;32333;55.844;-3.210;2022-09-21T03:47:03;100263.51;;;11.02;100.00
45872;BME280;32333;55.844;-3.210;2022-09-21T03:49:30;100264.56;;;11.23;100.00
45872;BME280;32333;55.844;-3.210;2022-09-21T03:51:57;100263.19;;;11.30;100.00
45872;BME280;32333;55.844;-3.210;2022-09-21T03:54:25;100264.60;;;11.13;100.00
45872;BME280;32333;55.844;-3.210;2022-09-21T03:56:52;100266.69;;;11.17;100.00
45872;BME280;32333;55.844;-3.210;2022-09-21T03:59:19;100266.59;;;11.32;100.00
45872;BME280;32333;55.844;-3.210;2022-09-21T04:01:48;100265.90;;;11.27;100.00
45872;BME280;32333;55.844;-3.210;2022-09-21T04:04:15;100263.05;;;10.14;100.00
45872;BME280;32333;55.844;-3.210;2022-09-21T04:06:42;100260.02;;;10.89;100.00
45872;BME280;32333;55.844;-3.210;2022-09-21T04:09:10;100262.44;;;10.85;100.00
45872;BME280;32333;55.844;-3.210;2022-09-21T04:11:37;100264.01;;;10.88;100.00
45872;BME280;32333;55.844;-3.210;2022-09-21T04:14:35;100261.22;;;10.50;100.00
45872;BME280;32333;55.844;-3.210;2022-09-21T04:17:03;100261.88;;;10.58;100.00
45872;BME280;32333;55.844;-3.210;2022-09-21T04:19:31;100258.15;;;10.74;100.00
45872;BME280;32333;55.844;-3.210;2022-09-21T04:21:59;100253.90;;;11.01;100.00
45872;BME280;32333;55.844;-3.210;2022-09-21T04:24:26;100253.35;;;11.05;100.00
45872;BME280;32333;55.844;-3.210;2022-09-21T04:26:53;100248.46;;;10.61;100.00
45872;BME280;32333;55.844;-3.210;2022-09-21T04:29:20;100246.75;;;10.55;100.00
45872;BME280;32333;55.844;-3.210;2022-09-21T04:31:49;100242.17;;;10.76;100.00
45872;BME280;32333;55.844;-3.210;2022-09-21T04:34:16;100241.58;;;10.87;100.00
45872;BME280;32333;55.844;-3.210;2022-09-21T04:36:44;100250.50;;;11.33;100.00
45872;BME280;32333;55.844;-3.210;2022-09-21T04:39:12;100254.36;;;11.01;100.00
45872;BME280;32333;55.844;-3.210;2022-09-21T04:41:39;100256.70;;;10.73;100.00
45872;BME280;32333;55.844;-3.210;2022-09-21T04:44:35;100258.43;;;10.98;100.00
45872;BME280;32333;55.844;-3.210;2022-09-21T04:47:03;100257.60;;;11.44;100.00
45872;BME280;32333;55.844;-3.210;2022-09-21T04:49:31;100249.32;;;11.04;100.00
45872;BME280;32333;55.844;-3.210;2022-09-21T04:52:00;100252.03;;;10.67;100.00
45872;BME280;32333;55.844;-3.210;2022-09-21T04:54:27;100248.71;;;10.43;100.00
45872;BME280;32333;55.844;-3.210;2022-09-21T04:56:55;100247.01;;;11.12;100.00
45872;BME280;32333;55.844;-3.210;2022-09-21T04:59:24;100242.62;;;10.84;100.00
45872;BME280;32333;55.844;-3.210;2022-09-21T05:01:52;100238.57;;;11.25;100.00
45872;BME280;32333;55.844;-3.210;2022-09-21T05:04:19;100238.27;;;11.81;100.00
45872;BME280;32333;55.844;-3.210;2022-09-21T05:06:47;100237.81;;;11.81;100.00
45872;BME280;32333;55.844;-3.210;2022-09-21T05:09:14;100233.48;;;11.41;100.00
45872;BME280;32333;55.844;-3.210;2022-09-21T05:11:42;100233.75;;;11.75;100.00
45872;BME280;32333;55.844;-3.210;2022-09-21T05:14:35;100239.95;;;10.81;100.00
45872;BME280;32333;55.844;-3.210;2022-09-21T05:17:03;100237.07;;;12.04;100.00
45872;BME280;32333;55.844;-3.210;2022-09-21T05:19:30;100236.58;;;11.74;100.00
45872;BME280;32333;55.844;-3.210;2022-09-21T05:21:58;100235.61;;;11.79;100.00
45872;BME280;32333;55.844;-3.210;2022-09-21T05:24:26;100235.36;;;12.23;100.00
45872;BME280;32333;55.844;-3.210;2022-09-21T05:26:53;100237.08;;;12.05;100.00
45872;BME280;32333;55.844;-3.210;2022-09-21T05:29:21;100232.31;;;12.08;100.00
45872;BME280;32333;55.844;-3.210;2022-09-21T05:31:53;100239.90;;;11.16;100.00
45872;BME280;32333;55.844;-3.210;2022-09-21T05:34:38;100237.80;;;11.54;100.00
45872;BME280;32333;55.844;-3.210;2022-09-21T05:37:11;100238.82;;;11.68;100.00
45872;BME280;32333;55.844;-3.210;2022-09-21T05:39:44;100243.98;;;11.45;100.00
45872;BME280;32333;55.844;-3.210;2022-09-21T05:44:36;100239.57;;;11.37;100.00
45872;BME280;32333;55.844;-3.210;2022-09-21T05:47:14;100237.89;;;10.86;100.00
45872;BME280;32333;55.844;-3.210;2022-09-21T05:49:56;100240.76;;;10.63;100.00
45872;BME280;32333;55.844;-3.210;2022-09-21T05:52:33;100238.64;;;11.29;100.00
45872;BME280;32333;55.844;-3.210;2022-09-21T05:55:11;100234.76;;;12.31;100.00
45872;BME280;32333;55.844;-3.210;2022-09-21T05:57:49;100235.99;;;10.71;100.00
45872;BME280;32333;55.844;-3.210;2022-09-21T06:00:22;100237.60;;;11.00;100.00
45872;BME280;32333;55.844;-3.210;2022-09-21T06:03:03;100240.03;;;11.55;100.00
45872;BME280;32333;55.844;-3.210;2022-09-21T06:05:35;100241.20;;;11.27;100.00
45872;BME280;32333;55.844;-3.210;2022-09-21T06:08:03;100236.48;;;11.28;100.00
45872;BME280;32333;55.844;-3.210;2022-09-21T06:10:33;100231.33;;;11.78;100.00
45872;BME280;32333;55.844;-3.210;2022-09-21T06:14:36;100228.88;;;12.46;100.00
45872;BME280;32333;55.844;-3.210;2022-09-21T06:17:03;100233.37;;;11.21;100.00
45872;BME280;32333;55.844;-3.210;2022-09-21T06:19:31;100236.54;;;11.45;100.00
45872;BME280;32333;55.844;-3.210;2022-09-21T06:22:00;100237.83;;;11.67;100.00
45872;BME280;32333;55.844;-3.210;2022-09-21T06:24:27;100228.44;;;12.05;100.00
45872;BME280;32333;55.844;-3.210;2022-09-21T06:26:54;100235.90;;;10.80;100.00
45872;BME280;32333;55.844;-3.210;2022-09-21T06:29:23;100232.21;;;11.86;100.00
45872;BME280;32333;55.844;-3.210;2022-09-21T06:31:51;100230.13;;;11.78;100.00
45872;BME280;32333;55.844;-3.210;2022-09-21T06:34:18;100233.21;;;11.55;100.00
45872;BME280;32333;55.844;-3.210;2022-09-21T06:36:46;100226.77;;;11.55;100.00
45872;BME280;32333;55.844;-3.210;2022-09-21T06:39:14;100228.68;;;11.01;100.00
45872;BME280;32333;55.844;-3.210;2022-09-21T06:41:41;100220.41;;;11.77;100.00
45872;BME280;32333;55.844;-3.210;2022-09-21T06:44:35;100219.87;;;11.55;100.00
45872;BME280;32333;55.844;-3.210;2022-09-21T06:47:02;100212.32;;;12.63;100.00
45872;BME280;32333;55.844;-3.210;2022-09-21T06:49:30;100212.97;;;12.36;100.00
45872;BME280;32333;55.844;-3.210;2022-09-21T06:51:58;100212.22;;;12.29;100.00
45872;BME280;32333;55.844;-3.210;2022-09-21T06:54:25;100212.99;;;11.86;100.00
45872;BME280;32333;55.844;-3.210;2022-09-21T06:56:54;100207.59;;;12.47;100.00
45872;BME280;32333;55.844;-3.210;2022-09-21T06:59:23;100209.23;;;11.70;100.00
45872;BME280;32333;55.844;-3.210;2022-09-21T07:01:50;100207.49;;;11.51;100.00
45872;BME280;32333;55.844;-3.210;2022-09-21T07:04:17;100208.06;;;11.68;100.00
45872;BME280;32333;55.844;-3.210;2022-09-21T07:06:45;100209.99;;;10.56;100.00
45872;BME280;32333;55.844;-3.210;2022-09-21T07:09:13;100209.92;;;10.71;100.00
45872;BME280;32333;55.844;-3.210;2022-09-21T07:11:40;100210.71;;;10.55;100.00
45872;BME280;32333;55.844;-3.210;2022-09-21T07:14:35;100207.14;;;10.88;100.00
45872;BME280;32333;55.844;-3.210;2022-09-21T07:17:02;100210.21;;;10.29;100.00
45872;BME280;32333;55.844;-3.210;2022-09-21T07:19:30;100207.64;;;10.47;100.00
45872;BME280;32333;55.844;-3.210;2022-09-21T07:21:58;100211.17;;;11.50;100.00
45872;BME280;32333;55.844;-3.210;2022-09-21T07:24:25;100209.94;;;10.61;100.00
45872;BME280;32333;55.844;-3.210;2022-09-21T07:26:53;100203.97;;;11.84;100.00
45872;BME280;32333;55.844;-3.210;2022-09-21T07:29:20;100198.25;;;11.49;100.00
45872;BME280;32333;55.844;-3.210;2022-09-21T07:31:47;100203.48;;;11.62;100.00
45872;BME280;32333;55.844;-3.210;2022-09-21T07:34:14;100196.11;;;11.93;100.00
45872;BME280;32333;55.844;-3.210;2022-09-21T07:36:42;100199.63;;;11.94;100.00
45872;BME280;32333;55.844;-3.210;2022-09-21T07:39:11;100197.81;;;12.31;100.00
45872;BME280;32333;55.844;-3.210;2022-09-21T07:41:40;100194.48;;;12.39;100.00
45872;BME280;32333;55.844;-3.210;2022-09-21T07:44:36;100198.54;;;12.47;100.00
45872;BME280;32333;55.844;-3.210;2022-09-21T07:47:04;100200.57;;;12.19;100.00
45872;BME280;32333;55.844;-3.210;2022-09-21T07:49:31;100197.36;;;12.23;100.00
45872;BME280;32333;55.844;-3.210;2022-09-21T07:52:00;100197.99;;;13.18;100.00
45872;BME280;32333;55.844;-3.210;2022-09-21T07:54:27;100193.88;;;12.71;100.00
45872;BME280;32333;55.844;-3.210;2022-09-21T07:56:55;100190.20;;;13.22;100.00
45872;BME280;32333;55.844;-3.210;2022-09-21T07:59:23;100185.10;;;13.67;100.00
45872;BME280;32333;55.844;-3.210;2022-09-21T08:01:50;100185.56;;;14.26;100.00
45872;BME280;32333;55.844;-3.210;2022-09-21T08:04:18;100184.10;;;13.47;100.00
45872;BME280;32333;55.844;-3.210;2022-09-21T08:06:45;100181.16;;;14.73;100.00
45872;BME280;32333;55.844;-3.210;2022-09-21T08:09:13;100178.90;;;14.24;100.00
45872;BME280;32333;55.844;-3.210;2022-09-21T08:11:40;100179.71;;;15.05;100.00
45872;BME280;32333;55.844;-3.210;2022-09-21T08:14:35;100182.65;;;14.66;100.00
45872;BME280;32333;55.844;-3.210;2022-09-21T08:17:03;100183.40;;;14.21;100.00
45872;BME280;32333;55.844;-3.210;2022-09-21T08:19:30;100175.72;;;14.84;100.00
45872;BME280;32333;55.844;-3.210;2022-09-21T08:21:59;100174.77;;;14.49;100.00
45872;BME280;32333;55.844;-3.210;2022-09-21T08:24:26;100169.09;;;15.30;100.00
45872;BME280;32333;55.844;-3.210;2022-09-21T08:26:54;100165.99;;;14.63;100.00
45872;BME280;32333;55.844;-3.210;2022-09-21T08:29:23;100160.75;;;15.83;100.00
45872;BME280;32333;55.844;-3.210;2022-09-21T08:31:50;100160.83;;;15.28;100.00
45872;BME280;32333;55.844;-3.210;2022-09-21T08:34:19;100160.11;;;14.63;100.00
45872;BME280;32333;55.844;-3.210;2022-09-21T08:36:48;100156.81;;;14.46;100.00
45872;BME280;32333;55.844;-3.210;2022-09-21T08:39:15;100156.80;;;14.55;100.00
45872;BME280;32333;55.844;-3.210;2022-09-21T08:41:56;100155.40;;;15.47;100.00
45872;BME280;32333;55.844;-3.210;2022-09-21T08:44:39;100149.88;;;14.72;100.00
45872;BME280;32333;55.844;-3.210;2022-09-21T08:47:12;100150.53;;;15.28;100.00
45872;BME280;32333;55.844;-3.210;2022-09-21T08:49:46;100148.54;;;15.42;100.00
45872;BME280;32333;55.844;-3.210;2022-09-21T08:52:18;100142.43;;;15.93;100.00
45872;BME280;32333;55.844;-3.210;2022-09-21T08:54:50;100142.24;;;15.99;100.00
45872;BME280;32333;55.844;-3.210;2022-09-21T08:57:21;100139.72;;;16.47;100.00
45872;BME280;32333;55.844;-3.210;2022-09-21T08:59:50;100134.00;;;15.82;100.00
45872;BME280;32333;55.844;-3.210;2022-09-21T09:02:30;100132.43;;;16.53;100.00
45872;BME280;32333;55.844;-3.210;2022-09-21T09:05:04;100129.11;;;16.71;100.00
45872;BME280;32333;55.844;-3.210;2022-09-21T09:07:50;100132.40;;;16.33;100.00
45872;BME280;32333;55.844;-3.210;2022-09-21T09:10:33;100127.27;;;17.07;100.00
45872;BME280;32333;55.844;-3.210;2022-09-21T09:14:48;100135.34;;;16.54;100.00
45872;BME280;32333;55.844;-3.210;2022-09-21T09:17:31;100136.55;;;16.87;100.00
45872;BME280;32333;55.844;-3.210;2022-09-21T09:20:06;100140.66;;;16.88;100.00
45872;BME280;32333;55.844;-3.210;2022-09-21T09:22:42;100137.70;;;16.99;100.00
45872;BME280;32333;55.844;-3.210;2022-09-21T09:25:18;100136.95;;;17.11;100.00
45872;BME280;32333;55.844;-3.210;2022-09-21T09:27:50;100127.18;;;16.72;100.00
45872;BME280;32333;55.844;-3.210;2022-09-21T09:30:21;100129.09;;;16.26;100.00
45872;BME280;32333;55.844;-3.210;2022-09-21T09:32:54;100126.25;;;16.50;100.00
45872;BME280;32333;55.844;-3.210;2022-09-21T09:35:27;100121.78;;;16.13;100.00
45872;BME280;32333;55.844;-3.210;2022-09-21T09:37:58;100122.17;;;16.70;100.00
45872;BME280;32333;55.844;-3.210;2022-09-21T09:40:42;100121.97;;;17.26;100.00
45872;BME280;32333;55.844;-3.210;2022-09-21T09:44:48;100117.17;;;16.41;100.00
45872;BME280;32333;55.844;-3.210;2022-09-21T09:47:33;100117.59;;;16.86;100.00
45872;BME280;32333;55.844;-3.210;2022-09-21T09:50:08;100114.71;;;17.36;100.00
45872;BME280;32333;55.844;-3.210;2022-09-21T09:52:38;100116.69;;;17.33;100.00
45872;BME280;32333;55.844;-3.210;2022-09-21T09:55:15;100116.58;;;16.81;100.00
45872;BME280;32333;55.844;-3.210;2022-09-21T09:57:43;100116.66;;;16.51;100.00
45872;BME280;32333;55.844;-3.210;2022-09-21T10:00:13;100117.30;;;16.38;100.00
45872;BME280;32333;55.844;-3.210;2022-09-21T10:02:47;100119.95;;;15.36;100.00
45872;BME280;32333;55.844;-3.210;2022-09-21T10:05:21;100126.41;;;15.36;100.00
45872;BME280;32333;55.844;-3.210;2022-09-21T10:07:50;100120.84;;;16.74;100.00
45872;BME280;32333;55.844;-3.210;2022-09-21T10:10:29;100115.14;;;16.44;100.00
45872;BME280;32333;55.844;-3.210;2022-09-21T10:14:35;100112.62;;;16.69;100.00
45872;BME280;32333;55.844;-3.210;2022-09-21T10:17:06;100117.03;;;16.96;100.00
45872;BME280;32333;55.844;-3.210;2022-09-21T10:19:34;100111.74;;;17.55;100.00
45872;BME280;32333;55.844;-3.210;2022-09-21T10:22:03;100109.46;;;17.98;100.00
45872;BME280;32333;55.844;-3.210;2022-09-21T10:24:35;100110.66;;;17.94;100.00
45872;BME280;32333;55.844;-3.210;2022-09-21T10:27:06;100111.36;;;17.70;100.00
45872;BME280;32333;55.844;-3.210;2022-09-21T10:29:40;100117.81;;;17.72;100.00
45872;BME280;32333;55.844;-3.210;2022-09-21T10:32:20;100117.55;;;16.14;100.00
45872;BME280;32333;55.844;-3.210;2022-09-21T10:35:21;100113.71;;;17.63;100.00
45872;BME280;32333;55.844;-3.210;2022-09-21T10:37:48;100110.39;;;17.27;100.00
45872;BME280;32333;55.844;-3.210;2022-09-21T10:40:37;100113.57;;;16.78;100.00
45872;BME280;32333;55.844;-3.210;2022-09-21T10:44:38;100115.45;;;16.93;100.00
45872;BME280;32333;55.844;-3.210;2022-09-21T10:47:17;100111.52;;;16.43;100.00
45872;BME280;32333;55.844;-3.210;2022-09-21T10:49:48;100111.09;;;16.07;100.00
45872;BME280;32333;55.844;-3.210;2022-09-21T10:52:20;100113.11;;;16.25;100.00
45872;BME280;32333;55.844;-3.210;2022-09-21T10:54:49;100105.21;;;16.71;100.00
45872;BME280;32333;55.844;-3.210;2022-09-21T10:57:21;100102.18;;;16.64;100.00
45872;BME280;32333;55.844;-3.210;2022-09-21T10:59:50;100100.47;;;17.10;100.00
45872;BME280;32333;55.844;-3.210;2022-09-21T11:02:34;100096.60;;;16.97;100.00
45872;BME280;32333;55.844;-3.210;2022-09-21T11:05:08;100096.57;;;17.52;100.00
45872;BME280;32333;55.844;-3.210;2022-09-21T11:07:44;100087.94;;;17.73;100.00
45872;BME280;32333;55.844;-3.210;2022-09-21T11:10:18;100077.70;;;17.94;100.00
45872;BME280;32333;55.844;-3.210;2022-09-21T11:14:42;100063.84;;;17.67;97.63
45872;BME280;32333;55.844;-3.210;2022-09-21T11:17:16;100067.85;;;17.54;99.06
45872;BME280;32333;55.844;-3.210;2022-09-21T11:19:49;100071.00;;;18.23;97.86
45872;BME280;32333;55.844;-3.210;2022-09-21T11:22:23;100058.30;;;17.96;96.14
45872;BME280;32333;55.844;-3.210;2022-09-21T11:25:04;100065.98;;;17.29;97.54
45872;BME280;32333;55.844;-3.210;2022-09-21T11:27:38;100061.38;;;17.52;98.53
45872;BME280;32333;55.844;-3.210;2022-09-21T11:30:11;100059.21;;;17.85;100.00
45872;BME280;32333;55.844;-3.210;2022-09-21T11:32:54;100058.29;;;18.36;98.64
45872;BME280;32333;55.844;-3.210;2022-09-21T11:35:34;100049.44;;;18.73;85.78
45872;BME280;32333;55.844;-3.210;2022-09-21T11:38:12;100043.03;;;17.82;88.45
45872;BME280;32333;55.844;-3.210;2022-09-21T11:40:56;100044.48;;;17.84;95.16
45872;BME280;32333;55.844;-3.210;2022-09-21T11:44:47;100034.21;;;17.05;93.17
45872;BME280;32333;55.844;-3.210;2022-09-21T11:47:28;100045.54;;;16.96;92.81
45872;BME280;32333;55.844;-3.210;2022-09-21T11:50:13;100043.12;;;16.54;96.41
45872;BME280;32333;55.844;-3.210;2022-09-21T11:52:56;100036.45;;;17.90;91.33
45872;BME280;32333;55.844;-3.210;2022-09-21T11:55:37;100032.66;;;16.91;95.16
45872;BME280;32333;55.844;-3.210;2022-09-21T11:58:11;100034.11;;;16.99;100.00
45872;BME280;32333;55.844;-3.210;2022-09-21T12:00:49;100030.82;;;17.18;95.24
45872;BME280;32333;55.844;-3.210;2022-09-21T12:03:31;100025.12;;;17.65;94.44
45872;BME280;32333;55.844;-3.210;2022-09-21T12:06:15;100029.07;;;15.87;99.88
45872;BME280;32333;55.844;-3.210;2022-09-21T12:08:59;100023.89;;;16.08;100.00
45872;BME280;32333;55.844;-3.210;2022-09-21T12:11:36;100027.19;;;15.86;100.00
45872;BME280;32333;55.844;-3.210;2022-09-21T12:14:41;100031.74;;;15.49;100.00
45872;BME280;32333;55.844;-3.210;2022-09-21T12:17:17;100029.40;;;15.65;100.00
45872;BME280;32333;55.844;-3.210;2022-09-21T12:19:59;100028.01;;;15.75;100.00
45872;BME280;32333;55.844;-3.210;2022-09-21T12:22:31;100029.30;;;16.15;100.00
45872;BME280;32333;55.844;-3.210;2022-09-21T12:25:03;100016.56;;;17.25;99.53
45872;BME280;32333;55.844;-3.210;2022-09-21T12:27:35;100016.06;;;17.29;95.15
45872;BME280;32333;55.844;-3.210;2022-09-21T12:30:11;100017.47;;;16.68;91.28
45872;BME280;32333;55.844;-3.210;2022-09-21T12:32:48;100018.04;;;15.61;99.97
45872;BME280;32333;55.844;-3.210;2022-09-21T12:35:21;100018.92;;;16.20;100.00
45872;BME280;32333;55.844;-3.210;2022-09-21T12:37:54;100011.52;;;16.00;98.96
45872;BME280;32333;55.844;-3.210;2022-09-21T12:40:30;100014.17;;;15.24;100.00
45872;BME280;32333;55.844;-3.210;2022-09-21T12:44:41;100010.62;;;15.85;100.00
45872;BME280;32333;55.844;-3.210;2022-09-21T12:47:12;100002.24;;;17.14;94.99
45872;BME280;32333;55.844;-3.210;2022-09-21T12:49:43;100004.61;;;16.37;94.10
45872;BME280;32333;55.844;-3.210;2022-09-21T12:52:15;99999.26;;;16.84;91.90
45872;BME280;32333;55.844;-3.210;2022-09-21T12:54:49;99998.43;;;16.53;96.06
45872;BME280;32333;55.844;-3.210;2022-09-21T12:57:29;99998.49;;;16.87;93.64
45872;BME280;32333;55.844;-3.210;2022-09-21T13:00:04;99997.63;;;16.02;97.66
45872;BME280;32333;55.844;-3.210;2022-09-21T13:02:36;99998.47;;;15.68;94.28
45872;BME280;32333;55.844;-3.210;2022-09-21T13:05:14;99993.07;;;16.45;93.13
45872;BME280;32333;55.844;-3.210;2022-09-21T13:07:59;100000.64;;;16.48;90.06
45872;BME280;32333;55.844;-3.210;2022-09-21T13:10:37;99985.61;;;16.67;90.43
45872;BME280;32333;55.844;-3.210;2022-09-21T13:14:44;99982.23;;;15.67;92.09
45872;BME280;32333;55.844;-3.210;2022-09-21T13:17:20;99982.68;;;15.97;91.25
45872;BME280;32333;55.844;-3.210;2022-09-21T13:19:57;99972.62;;;15.60;94.73
45872;BME280;32333;55.844;-3.210;2022-09-21T13:22:31;99971.35;;;16.04;92.30
45872;BME280;32333;55.844;-3.210;2022-09-21T13:25:03;99967.87;;;15.90;94.03
45872;BME280;32333;55.844;-3.210;2022-09-21T13:28:18;99963.42;;;16.37;95.89